createdAt,value
2022-11-19T00:00:47.098Z,8.70
2022-11-19T00:05:50.266Z,8.60
2022-11-19T00:10:51.907Z,8.60
2022-11-19T00:15:53.560Z,8.60
2022-11-19T00:20:56.422Z,8.50
2022-11-19T00:26:07.850Z,8.60
2022-11-19T00:31:11.882Z,8.60
2022-11-19T00:36:15.371Z,8.60
2022-11-19T00:41:17.099Z,8.60
2022-11-19T00:46:21.529Z,8.50
2022-11-19T00:51:25.136Z,8.60
2022-11-19T00:56:27.652Z,8.60
2022-11-19T01:01:29.366Z,8.50
2022-11-19T01:06:31.151Z,8.60
2022-11-19T01:11:35.241Z,8.60
2022-11-19T01:16:39.182Z,8.50
2022-11-19T01:21:40.897Z,8.50
2022-11-19T01:26:45.863Z,8.50
2022-11-19T01:31:47.854Z,8.50
2022-11-19T01:36:49.486Z,8.50
2022-11-19T01:41:51.150Z,8.40
2022-11-19T01:46:52.769Z,8.50
2022-11-19T01:51:59.328Z,8.50
2022-11-19T01:57:04.943Z,8.50
2022-11-19T02:02:06.639Z,8.50
2022-11-19T02:07:10.181Z,8.50
2022-11-19T02:12:47.290Z,8.50
2022-11-19T02:18:01.003Z,8.50
2022-11-19T02:23:46.447Z,8.50
2022-11-19T02:29:09.661Z,8.50
2022-11-19T02:34:25.925Z,8.50
2022-11-19T02:39:52.756Z,8.50
2022-11-19T02:45:09.986Z,8.50
2022-11-19T02:50:14.778Z,8.50
2022-11-19T02:55:19.176Z,8.60
2022-11-19T03:00:40.343Z,8.60
2022-11-19T03:05:51.063Z,8.60
2022-11-19T03:11:05.385Z,8.60
2022-11-19T03:16:31.620Z,8.60
2022-11-19T03:21:45.785Z,8.60
2022-11-19T03:26:54.564Z,8.60
2022-11-19T03:32:05.275Z,8.70
2022-11-19T03:37:08.712Z,8.60
2022-11-19T03:42:13.223Z,8.60
2022-11-19T03:47:30.267Z,8.60
2022-11-19T03:52:33.348Z,8.60
2022-11-19T03:57:35.029Z,8.60
2022-11-19T04:02:36.682Z,8.60
2022-11-19T04:07:38.331Z,8.60
2022-11-19T04:12:40.156Z,8.60
2022-11-19T04:17:42.329Z,8.60
2022-11-19T04:22:44.000Z,8.30
2022-11-19T04:27:46.806Z,8.00
2022-11-19T04:32:48.466Z,7.70
2022-11-19T04:37:50.213Z,7.60
2022-11-19T04:42:51.888Z,7.40
2022-11-19T04:47:53.514Z,7.30
2022-11-19T04:52:55.142Z,7.20
2022-11-19T04:57:56.799Z,7.20
2022-11-19T05:02:58.387Z,7.10
2022-11-19T05:08:00.013Z,6.90
2022-11-19T05:13:01.717Z,6.80
2022-11-19T05:18:03.555Z,6.70
2022-11-19T05:23:05.559Z,6.40
2022-11-19T05:28:07.265Z,6.40
2022-11-19T05:33:09.277Z,6.10
2022-11-19T05:38:11.056Z,5.80
2022-11-19T05:43:13.065Z,5.70
2022-11-19T05:48:14.741Z,5.60
2022-11-19T05:53:16.401Z,5.50
2022-11-19T05:58:17.992Z,5.40
2022-11-19T06:03:19.611Z,5.20
2022-11-19T06:08:21.425Z,5.00
2022-11-19T06:13:23.162Z,5.00
2022-11-19T06:18:24.817Z,5.00
2022-11-19T06:23:26.470Z,4.90
2022-11-19T06:28:28.072Z,4.80
2022-11-19T06:33:29.729Z,4.80
2022-11-19T06:38:31.377Z,4.70
2022-11-19T06:43:33.050Z,4.70
2022-11-19T06:48:34.856Z,4.70
2022-11-19T06:53:36.588Z,4.60
2022-11-19T06:58:38.285Z,4.60
2022-11-19T07:03:40.006Z,4.50
2022-11-19T07:08:41.638Z,4.50
2022-11-19T07:13:58.455Z,4.50
2022-11-19T07:19:02.039Z,4.50
2022-11-19T07:24:08.007Z,4.50
2022-11-19T07:29:15.679Z,4.50
2022-11-19T07:34:18.353Z,4.50
2022-11-19T07:39:20.188Z,4.50
2022-11-19T07:44:21.968Z,4.50
2022-11-19T07:49:24.904Z,4.40
2022-11-19T07:54:26.523Z,4.30
2022-11-19T07:59:28.538Z,4.40
2022-11-19T08:04:30.243Z,4.30
2022-11-19T08:09:31.934Z,4.30
2022-11-19T08:14:33.529Z,4.20
2022-11-19T08:19:35.412Z,4.30
2022-11-19T08:24:37.071Z,4.20
2022-11-19T08:29:38.938Z,4.20
2022-11-19T08:34:40.601Z,4.20
2022-11-19T08:39:42.436Z,4.20
2022-11-19T08:44:44.030Z,4.20
2022-11-19T08:49:45.639Z,4.10
2022-11-19T08:54:47.301Z,4.10
2022-11-19T08:59:48.927Z,4.10
2022-11-19T09:04:50.565Z,4.10
2022-11-19T09:09:52.175Z,4.10
2022-11-19T09:14:53.786Z,4.10
2022-11-19T09:19:55.515Z,4.10
2022-11-19T09:24:57.216Z,4.10
2022-11-19T09:29:58.894Z,4.10
2022-11-19T09:35:00.702Z,4.20
2022-11-19T09:40:02.530Z,4.30
2022-11-19T09:45:04.274Z,4.30
2022-11-19T09:50:06.187Z,4.30
2022-11-19T09:55:18.471Z,4.30
2022-11-19T10:00:23.623Z,4.40
2022-11-19T10:05:42.574Z,4.50
2022-11-19T10:10:55.236Z,4.50
2022-11-19T10:16:13.606Z,4.60
2022-11-19T10:21:45.368Z,4.50
2022-11-19T10:26:57.848Z,4.50
2022-11-19T10:32:37.457Z,4.50
2022-11-19T10:37:45.970Z,4.60
2022-11-19T10:42:54.127Z,4.60
2022-11-19T10:48:22.311Z,4.60
2022-11-19T10:53:36.591Z,4.60
2022-11-19T10:58:40.575Z,4.60
2022-11-19T11:03:54.765Z,4.70
2022-11-19T11:08:56.485Z,4.70
2022-11-19T11:14:18.330Z,4.60
2022-11-19T11:19:22.979Z,4.60
2022-11-19T11:24:34.849Z,4.70
2022-11-19T11:29:36.642Z,4.60
2022-11-19T11:34:43.841Z,4.60
2022-11-19T11:39:52.390Z,4.50
2022-11-19T11:44:58.672Z,4.50
2022-11-19T11:50:09.087Z,4.60
2022-11-19T11:55:24.365Z,4.60
2022-11-19T12:00:45.926Z,4.70
2022-11-19T12:06:12.702Z,4.60
2022-11-19T12:11:54.775Z,4.60
2022-11-19T12:17:09.982Z,4.60
2022-11-19T12:22:32.941Z,4.50
2022-11-19T12:27:48.576Z,4.50
2022-11-19T12:33:24.615Z,4.40
2022-11-19T12:38:38.942Z,4.40
2022-11-19T12:44:01.094Z,4.50
2022-11-19T12:49:28.952Z,4.50
2022-11-19T12:55:01.065Z,4.50
2022-11-19T13:00:05.982Z,4.40
2022-11-19T13:05:16.414Z,4.40
2022-11-19T13:10:28.795Z,4.50
2022-11-19T13:15:38.511Z,4.50
2022-11-19T13:21:00.215Z,4.50
2022-11-19T13:26:11.862Z,4.60
2022-11-19T13:31:41.276Z,4.60
2022-11-19T13:36:49.108Z,4.60
2022-11-19T13:42:12.294Z,4.50
2022-11-19T13:47:37.166Z,4.60
2022-11-19T13:52:46.326Z,4.60
2022-11-19T13:57:48.795Z,4.50
2022-11-19T14:03:15.456Z,4.50
2022-11-19T14:08:24.802Z,4.50
2022-11-19T14:13:43.656Z,4.50
2022-11-19T14:19:10.689Z,4.50
2022-11-19T14:24:43.130Z,4.50
2022-11-19T14:29:44.847Z,4.50
2022-11-19T14:35:13.352Z,4.40
2022-11-19T14:40:23.971Z,4.50
2022-11-19T14:45:26.743Z,4.50
2022-11-19T14:50:30.802Z,4.50
2022-11-19T14:55:35.777Z,4.40
2022-11-19T15:00:40.283Z,4.50
2022-11-19T15:05:45.103Z,4.40
2022-11-19T15:11:07.564Z,4.40
2022-11-19T15:16:26.710Z,4.30
2022-11-19T15:21:31.104Z,4.30
2022-11-19T15:26:51.758Z,4.30
2022-11-19T15:32:30.753Z,4.30
2022-11-19T15:37:52.567Z,4.30
2022-11-19T15:43:02.144Z,4.30
2022-11-19T15:48:16.234Z,4.20
2022-11-19T15:53:23.183Z,4.10
2022-11-19T15:58:28.835Z,4.20
2022-11-19T16:03:33.483Z,4.10
2022-11-19T16:08:35.756Z,4.10
2022-11-19T16:13:56.018Z,4.10
2022-11-19T16:18:57.716Z,4.00
2022-11-19T16:24:19.485Z,4.00
2022-11-19T16:29:23.726Z,4.10
2022-11-19T16:34:32.104Z,4.00
2022-11-19T16:39:34.194Z,4.00
2022-11-19T16:44:36.695Z,4.00
2022-11-19T16:49:47.913Z,4.00
2022-11-19T16:54:50.879Z,4.00
2022-11-19T16:59:59.122Z,3.90
2022-11-19T17:05:28.643Z,3.90
2022-11-19T17:10:31.466Z,3.90
2022-11-19T17:15:44.471Z,3.90
2022-11-19T17:20:47.799Z,3.90
2022-11-19T17:26:00.256Z,3.90
2022-11-19T17:31:23.887Z,3.90
2022-11-19T17:36:28.549Z,3.90
2022-11-19T17:41:50.088Z,3.90
2022-11-19T17:46:51.755Z,3.80
2022-11-19T17:51:55.270Z,3.90
2022-11-19T17:56:56.972Z,3.90
2022-11-19T18:01:58.741Z,3.90
2022-11-19T18:07:00.426Z,3.90
2022-11-19T18:12:02.097Z,3.90
2022-11-19T18:17:04.019Z,3.90
2022-11-19T18:22:09.834Z,3.90
2022-11-19T18:27:11.569Z,3.90
2022-11-19T18:32:16.621Z,3.80
2022-11-19T18:37:18.349Z,3.90
2022-11-19T18:42:20.210Z,3.80
2022-11-19T18:47:24.500Z,3.80
2022-11-19T18:52:26.205Z,3.80
2022-11-19T18:57:27.926Z,3.90
2022-11-19T19:02:29.580Z,3.80
2022-11-19T19:07:31.332Z,3.80
2022-11-19T19:12:33.165Z,3.80
2022-11-19T19:17:35.815Z,3.80
2022-11-19T19:22:37.497Z,3.80
2022-11-19T19:27:39.153Z,3.80
2022-11-19T19:32:40.892Z,3.80
2022-11-19T19:37:42.883Z,3.80
2022-11-19T19:42:44.859Z,3.80
2022-11-19T19:47:46.579Z,3.70
2022-11-19T19:52:48.247Z,3.70
2022-11-19T19:57:49.989Z,3.60
2022-11-19T20:02:51.712Z,3.60
2022-11-19T20:07:53.358Z,3.60
2022-11-19T20:13:13.719Z,3.50
2022-11-19T20:18:15.392Z,3.50
2022-11-19T20:23:17.338Z,3.50
2022-11-19T20:28:19.031Z,3.50
2022-11-19T20:33:22.368Z,3.50
2022-11-19T20:38:24.453Z,3.50
2022-11-19T20:43:51.549Z,3.60
2022-11-19T20:48:54.440Z,3.60
2022-11-19T20:53:56.059Z,3.50
2022-11-19T20:58:57.901Z,3.50
2022-11-19T21:03:59.945Z,3.50
2022-11-19T21:09:02.226Z,3.50
2022-11-19T21:14:04.698Z,3.40
2022-11-19T21:19:06.438Z,3.40
2022-11-19T21:24:08.510Z,3.40
2022-11-19T21:29:10.164Z,3.30
2022-11-19T21:34:20.577Z,3.30
2022-11-19T21:39:22.579Z,3.30
2022-11-19T21:44:24.501Z,3.30
2022-11-19T21:49:26.085Z,3.30
2022-11-19T21:54:27.741Z,3.30
2022-11-19T21:59:29.410Z,3.30
2022-11-19T22:04:32.122Z,3.30
2022-11-19T22:09:33.803Z,3.30
2022-11-19T22:14:35.430Z,3.30
2022-11-19T22:19:38.146Z,3.30
2022-11-19T22:24:39.783Z,3.30
2022-11-19T22:29:41.615Z,3.30
2022-11-19T22:34:43.292Z,3.30
2022-11-19T22:39:44.989Z,3.30
2022-11-19T22:44:49.839Z,3.30
2022-11-19T22:49:51.594Z,3.30
2022-11-19T22:54:53.199Z,3.20
2022-11-19T22:59:55.823Z,3.20
2022-11-19T23:04:58.096Z,3.20
2022-11-19T23:10:00.709Z,3.30
2022-11-19T23:15:02.337Z,3.20
2022-11-19T23:20:05.804Z,3.20
2022-11-19T23:25:07.743Z,3.20
2022-11-19T23:30:09.757Z,3.20
2022-11-19T23:35:12.038Z,3.20
2022-11-19T23:40:13.878Z,3.20
2022-11-19T23:45:15.598Z,3.20
2022-11-19T23:50:18.337Z,3.10
2022-11-19T23:55:19.961Z,3.10
